Terminal Aerodrome Forecast
Issued by NWS

Home | Current Version | Previous Version | Text Only | Print | Product List | Glossary On
Versions: 1 2 3 4 5 6 7 8 9 10 11 12 13 14 15 16 17 18 19
000
FTUS45 KBYZ 231354 AAA
TAFLVM
TAF AMD
KLVM 231354Z 2314/2412 24026G31KT P6SM VCSH OVC045
     FM231500 26031G38KT P6SM VCSH SCT050 BKN070
     FM240300 25027KT P6SM SCT080 BKN120=

USA.gov is the U.S. government's official web portal to all federal, state and local government web resources and services.